createdAt,value
2022-09-06T00:03:11.660Z,94.11
2022-09-06T00:08:15.120Z,93.74
2022-09-06T00:13:17.771Z,93.80
2022-09-06T00:18:21.207Z,93.36
2022-09-06T00:23:24.055Z,93.46
2022-09-06T00:28:27.810Z,93.67
2022-09-06T00:33:30.505Z,93.33
2022-09-06T00:38:33.529Z,93.00
2022-09-06T00:43:36.178Z,93.69
2022-09-06T00:48:40.052Z,92.88
2022-09-06T00:53:42.934Z,93.09
2022-09-06T00:58:47.040Z,92.87
2022-09-06T01:03:49.706Z,93.29
2022-09-06T01:09:04.052Z,92.96
2022-09-06T01:14:29.668Z,92.54
2022-09-06T01:20:14.333Z,92.44
2022-09-06T01:25:33.636Z,93.02
2022-09-06T01:30:40.130Z,92.71
2022-09-06T01:35:51.037Z,92.87
2022-09-06T01:40:53.713Z,93.14
2022-09-06T01:46:08.181Z,92.68
2022-09-06T01:51:38.501Z,93.00
2022-09-06T01:57:02.248Z,93.27
2022-09-06T02:02:24.663Z,93.25
2022-09-06T02:07:31.145Z,92.98
2022-09-06T02:12:37.424Z,92.43
2022-09-06T02:17:47.509Z,92.20
2022-09-06T02:22:54.215Z,92.04
2022-09-06T02:27:56.873Z,92.13
2022-09-06T02:33:06.843Z,91.72
2022-09-06T02:38:09.457Z,91.53
2022-09-06T02:43:12.306Z,91.66
2022-09-06T02:48:14.977Z,91.53
2022-09-06T02:53:18.224Z,91.19
2022-09-06T02:58:21.024Z,90.89
2022-09-06T03:03:25.016Z,91.34
2022-09-06T03:08:33.406Z,90.89
2022-09-06T03:13:36.294Z,90.48
2022-09-06T03:18:39.116Z,90.61
2022-09-06T03:23:42.488Z,91.05
2022-09-06T03:28:45.128Z,90.53
2022-09-06T03:33:48.041Z,90.63
2022-09-06T03:38:51.319Z,90.32
2022-09-06T03:43:54.026Z,90.71
2022-09-06T03:48:58.171Z,90.75
2022-09-06T03:54:00.876Z,90.10
2022-09-06T03:59:03.607Z,90.25
2022-09-06T04:04:06.113Z,90.08
2022-09-06T04:09:08.660Z,89.77
2022-09-06T04:14:11.240Z,89.31
2022-09-06T04:19:13.833Z,88.98
2022-09-06T04:24:17.039Z,89.43
2022-09-06T04:29:19.694Z,89.05
2022-09-06T04:34:22.333Z,88.68
2022-09-06T04:39:24.980Z,88.30
2022-09-06T04:44:27.734Z,87.94
2022-09-06T04:49:30.313Z,86.92
2022-09-06T04:54:32.996Z,86.53
2022-09-06T04:59:35.611Z,85.67
2022-09-06T05:04:38.240Z,84.49
2022-09-06T05:09:40.829Z,83.56
2022-09-06T05:14:43.453Z,82.86
2022-09-06T05:19:46.056Z,83.14
2022-09-06T05:24:48.994Z,82.37
2022-09-06T05:29:51.698Z,82.01
2022-09-06T05:34:54.341Z,80.87
2022-09-06T05:40:00.322Z,80.02
2022-09-06T05:45:03.309Z,80.14
2022-09-06T05:55:10.238Z,79.53
2022-09-06T06:00:14.303Z,80.13
2022-09-06T06:05:17.124Z,79.15
2022-09-06T06:10:19.728Z,78.34
2022-09-06T06:15:22.499Z,77.34
2022-09-06T06:20:25.223Z,77.77
2022-09-06T06:25:27.894Z,76.28
2022-09-06T06:30:30.460Z,75.01
2022-09-06T06:35:36.062Z,73.77
2022-09-06T06:40:45.872Z,73.21
2022-09-06T06:45:50.189Z,73.57
2022-09-06T06:50:52.913Z,73.42
2022-09-06T06:55:55.712Z,74.39
2022-09-06T07:00:58.589Z,74.43
2022-09-06T07:06:16.666Z,73.80
2022-09-06T07:11:21.744Z,73.58
2022-09-06T07:16:28.423Z,73.85
2022-09-06T07:21:38.579Z,72.37
2022-09-06T07:26:41.841Z,71.19
2022-09-06T07:37:07.386Z,69.13
2022-09-06T07:42:10.856Z,68.88
2022-09-06T07:58:01.030Z,69.13
2022-09-06T08:03:03.850Z,67.42
2022-09-06T08:13:29.654Z,69.71
2022-09-06T08:18:32.788Z,70.05
2022-09-06T08:23:35.592Z,68.55
2022-09-06T08:28:38.413Z,66.87
2022-09-06T08:33:42.126Z,64.83
2022-09-06T08:38:45.930Z,65.14
2022-09-06T08:49:32.562Z,69.52
2022-09-06T08:54:48.875Z,71.22
2022-09-06T08:59:57.649Z,70.84
2022-09-06T09:05:04.825Z,69.48
2022-09-06T09:10:15.782Z,67.37
2022-09-06T09:15:20.648Z,66.34
2022-09-06T09:20:23.446Z,66.17
2022-09-06T09:25:34.416Z,67.24
2022-09-06T09:30:57.206Z,67.99
2022-09-06T09:36:02.678Z,67.42
2022-09-06T09:41:07.948Z,67.34
2022-09-06T09:46:16.570Z,68.19
2022-09-06T09:51:27.142Z,69.12
2022-09-06T09:56:53.171Z,68.09
2022-09-06T10:02:00.152Z,67.96
2022-09-06T10:07:13.519Z,67.76
2022-09-06T10:12:29.312Z,66.96
2022-09-06T10:17:37.853Z,66.99
2022-09-06T10:23:03.223Z,67.08
2022-09-06T10:28:21.529Z,67.76
2022-09-06T10:33:47.019Z,68.12
2022-09-06T10:39:03.921Z,68.02
2022-09-06T10:44:32.712Z,68.23
2022-09-06T10:49:37.761Z,66.76
2022-09-06T10:54:42.173Z,65.62
2022-09-06T10:59:53.067Z,65.36
2022-09-06T11:10:29.380Z,63.41
2022-09-06T11:15:51.477Z,62.61
2022-09-06T11:20:53.952Z,62.57
2022-09-06T11:26:12.162Z,61.24
2022-09-06T11:36:56.079Z,60.46
2022-09-06T11:41:59.325Z,58.72
2022-09-06T11:47:02.593Z,58.47
2022-09-06T11:52:43.700Z,58.19
2022-09-06T11:57:48.019Z,59.13
2022-09-06T12:02:52.886Z,59.05
2022-09-06T12:08:10.660Z,59.53
2022-09-06T12:13:42.585Z,60.81
2022-09-06T12:18:48.239Z,60.47
2022-09-06T12:23:51.049Z,59.90
2022-09-06T12:28:53.806Z,59.51
2022-09-06T12:33:58.056Z,60.16
2022-09-06T12:39:04.128Z,61.28
2022-09-06T12:44:08.113Z,61.63
2022-09-06T12:49:13.025Z,61.87
2022-09-06T12:54:19.427Z,62.19
2022-09-06T12:59:25.207Z,62.43
2022-09-06T13:04:28.022Z,63.49
2022-09-06T13:09:31.977Z,63.42
2022-09-06T13:14:35.822Z,64.25
2022-09-06T13:19:40.503Z,63.95
2022-09-06T13:24:47.852Z,63.10
2022-09-06T13:30:02.616Z,62.43
2022-09-06T13:35:06.246Z,62.03
2022-09-06T13:40:59.959Z,61.86
2022-09-06T13:46:08.206Z,63.52
2022-09-06T13:51:11.383Z,64.52
2022-09-06T13:56:14.143Z,64.49
2022-09-06T14:01:17.157Z,64.17
2022-09-06T14:06:19.985Z,63.59
2022-09-06T14:11:23.124Z,62.53
2022-09-06T14:16:25.995Z,62.41
2022-09-06T14:21:28.674Z,61.90
2022-09-06T14:26:31.953Z,60.71
2022-09-06T14:31:34.938Z,59.96
2022-09-06T14:36:37.717Z,59.67
2022-09-06T14:41:40.587Z,58.74
2022-09-06T14:46:43.477Z,58.06
2022-09-06T14:51:47.027Z,58.46
2022-09-06T14:56:49.734Z,58.72
2022-09-06T15:01:52.626Z,58.50
2022-09-06T15:06:58.862Z,58.82
2022-09-06T15:12:04.389Z,58.55
2022-09-06T15:17:09.039Z,59.06
2022-09-06T15:22:11.759Z,59.24
2022-09-06T15:27:14.395Z,59.48
2022-09-06T15:32:17.083Z,59.70
2022-09-06T15:37:19.832Z,60.64
2022-09-06T15:42:22.573Z,62.53
2022-09-06T15:47:25.366Z,64.66
2022-09-06T15:52:28.379Z,66.88
2022-09-06T15:57:31.178Z,68.64
2022-09-06T16:02:33.863Z,70.45
2022-09-06T16:07:41.052Z,70.82
2022-09-06T16:12:46.408Z,70.79
2022-09-06T16:17:52.203Z,70.99
2022-09-06T16:22:55.017Z,70.85
2022-09-06T16:27:57.639Z,70.48
2022-09-06T16:33:00.339Z,70.36
2022-09-06T16:38:06.075Z,69.91
2022-09-06T16:43:11.795Z,69.74
2022-09-06T16:48:14.490Z,69.17
2022-09-06T16:53:22.058Z,69.48
2022-09-06T16:58:25.684Z,69.55
2022-09-06T17:03:28.526Z,69.27
2022-09-06T17:08:32.625Z,68.94
2022-09-06T17:13:39.046Z,69.05
2022-09-06T17:18:42.078Z,68.55
2022-09-06T17:23:44.758Z,68.39
2022-09-06T17:28:49.819Z,68.10
2022-09-06T17:33:52.956Z,68.13
2022-09-06T17:39:10.650Z,68.45
2022-09-06T17:44:15.457Z,68.88
2022-09-06T17:49:18.811Z,68.70
2022-09-06T17:54:21.672Z,68.58
2022-09-06T17:59:24.429Z,68.74
2022-09-06T18:04:27.098Z,68.71
2022-09-06T18:09:30.067Z,68.72
2022-09-06T18:14:32.841Z,68.71
2022-09-06T18:19:35.734Z,68.88
2022-09-06T18:24:38.353Z,69.24
2022-09-06T18:29:41.106Z,69.38
2022-09-06T18:34:43.974Z,69.42
2022-09-06T18:39:46.706Z,69.16
2022-09-06T18:44:51.488Z,69.40
2022-09-06T18:49:54.157Z,69.59
2022-09-06T18:54:56.803Z,69.59
2022-09-06T18:59:59.696Z,70.11
2022-09-06T19:05:02.751Z,70.69
2022-09-06T19:10:06.224Z,70.22
2022-09-06T19:15:09.352Z,70.48
2022-09-06T19:20:12.230Z,70.66
2022-09-06T19:25:14.938Z,70.60
2022-09-06T19:30:17.872Z,70.46
2022-09-06T19:35:21.704Z,70.64
2022-09-06T19:40:24.462Z,70.18
2022-09-06T19:45:27.164Z,71.15
2022-09-06T19:50:36.764Z,71.10
2022-09-06T19:55:39.953Z,71.13
2022-09-06T20:00:43.265Z,71.64
2022-09-06T20:05:46.341Z,71.49
2022-09-06T20:10:56.731Z,71.51
2022-09-06T20:15:59.583Z,70.80
2022-09-06T20:21:02.986Z,70.85
2022-09-06T20:26:16.387Z,70.36
2022-09-06T20:31:20.766Z,70.38
2022-09-06T20:36:23.514Z,70.70
2022-09-06T20:41:26.980Z,70.72
2022-09-06T20:46:32.445Z,70.85
2022-09-06T20:51:37.296Z,70.78
2022-09-06T20:56:42.109Z,70.64
2022-09-06T21:01:46.905Z,70.37
2022-09-06T21:06:51.069Z,71.10
2022-09-06T21:11:54.432Z,70.43
2022-09-06T21:16:59.603Z,71.15
2022-09-06T21:22:02.498Z,70.16
2022-09-06T21:27:06.873Z,70.75
2022-09-06T21:32:09.502Z,71.31
2022-09-06T21:37:12.130Z,70.80
2022-09-06T21:42:14.831Z,70.96
2022-09-06T21:47:17.435Z,70.23
2022-09-06T21:52:20.161Z,71.01
2022-09-06T21:57:22.855Z,71.65
2022-09-06T22:02:27.895Z,71.00
2022-09-06T22:07:30.906Z,71.46
2022-09-06T22:12:33.698Z,71.38
2022-09-06T22:17:37.414Z,72.56
2022-09-06T22:22:40.174Z,73.11
2022-09-06T22:27:42.963Z,73.21
2022-09-06T22:32:45.614Z,73.95
2022-09-06T22:37:48.271Z,74.34
2022-09-06T22:42:51.106Z,74.24
2022-09-06T22:47:53.915Z,74.83
2022-09-06T22:52:57.005Z,74.51
2022-09-06T22:58:00.338Z,74.00
2022-09-06T23:03:03.214Z,74.64
2022-09-06T23:08:06.076Z,75.04
2022-09-06T23:13:10.594Z,74.86
2022-09-06T23:18:14.691Z,75.74
2022-09-06T23:23:17.331Z,76.87
2022-09-06T23:28:20.381Z,76.94
2022-09-06T23:33:23.063Z,76.66
2022-09-06T23:38:25.784Z,77.81
2022-09-06T23:43:29.038Z,77.30
2022-09-06T23:48:31.854Z,77.08
2022-09-06T23:53:34.761Z,77.66
2022-09-06T23:58:38.957Z,77.22
